Time;durP1;ratioP1;P1;durP2;ratioP2;P2;SDS_P1;SDS_P2;PMS_P1;PMS_P2;Temp;Humidity;BMP_temperature;BMP_pressure;BME280_temperature;BME280_humidity;BME280_pressure;Samples;Min_cycle;Max_cycle;Signal;HPM_P1;HPM_P2
2023/06/24 00:01:39;;;;;;;19.00;14.73;;;;;;;-143.21;77.87;71320.69;5067586;28;20984;-79
2023/06/24 00:04:06;;;;;;;20.42;15.32;;;;;;;-143.21;77.73;71324.66;5067404;28;20296;-79
2023/06/24 00:06:34;;;;;;;17.52;14.20;;;;;;;-143.21;77.74;71320.69;5066856;28;20687;-79
2023/06/24 00:09:01;;;;;;;23.85;15.95;;;;;;;-143.21;77.85;71322.69;5067392;28;20197;-80
2023/06/24 00:11:29;;;;;;;23.52;15.73;;;;;;;-143.21;78.49;71320.69;5067976;28;20266;-79
2023/06/24 00:13:56;;;;;;;21.63;14.52;;;;;;;-143.21;78.63;71320.69;5068115;28;20197;-80
2023/06/24 00:16:27;;;;;;;20.85;15.60;;;;;;;-143.21;79.02;71332.59;5068005;28;20201;-79
2023/06/24 00:18:58;;;;;;;19.17;15.35;;;;;;;-143.21;78.98;71332.59;5068233;28;20651;-79
2023/06/24 00:21:29;;;;;;;20.85;15.30;;;;;;;-143.21;78.50;71330.63;5069858;28;20279;-79
2023/06/24 00:23:58;;;;;;;30.27;15.90;;;;;;;-143.21;78.55;71326.66;5069876;28;20216;-79
2023/06/24 00:26:25;;;;;;;28.10;16.15;;;;;;;-143.21;78.82;71320.69;5067273;28;20648;-81
2023/06/24 00:28:52;;;;;;;23.90;16.23;;;;;;;-143.21;78.80;71318.72;5067346;28;20201;-80
2023/06/24 00:31:19;;;;;;;21.60;15.55;;;;;;;-143.21;78.92;71316.75;5067215;28;20186;-80
2023/06/24 00:33:46;;;;;;;24.08;15.23;;;;;;;-143.21;79.06;71320.69;5063880;28;20828;-80
2023/06/24 00:36:13;;;;;;;22.60;15.98;;;;;;;-143.21;79.36;71324.66;5065956;28;20189;-80
2023/06/24 00:38:40;;;;;;;22.20;16.33;;;;;;;-143.21;79.52;71340.53;5066754;28;21083;-79
2023/06/24 00:41:09;;;;;;;23.73;16.23;;;;;;;-143.21;78.90;71348.47;5067422;28;20210;-79
2023/06/24 00:43:36;;;;;;;27.13;16.20;;;;;;;-143.21;79.03;71342.50;5070627;28;20206;-86
2023/06/24 00:46:06;;;;;;;23.80;16.80;;;;;;;-143.21;79.03;71346.47;5069734;28;20197;-86
2023/06/24 00:48:33;;;;;;;23.38;15.98;;;;;;;-143.21;79.61;71350.44;5067804;28;20263;-85
2023/06/24 00:51:00;;;;;;;21.67;16.08;;;;;;;-143.21;80.05;71360.34;5068988;28;20217;-86
2023/06/24 00:53:27;;;;;;;27.55;16.67;;;;;;;-143.21;80.31;71362.34;5069891;28;20767;-86
2023/06/24 00:55:56;;;;;;;22.50;15.75;;;;;;;-143.21;80.95;71368.28;5070505;28;20209;-86
2023/06/24 00:58:24;;;;;;;26.35;16.15;;;;;;;-143.21;81.20;71374.22;5068081;28;20204;-85
2023/06/24 01:00:57;;;;;;;22.17;15.73;;;;;;;-143.21;81.40;71382.16;5074587;28;20583;-86
2023/06/24 01:03:24;;;;;;;21.75;15.93;;;;;;;-143.21;81.81;71396.03;5078163;28;20251;-86
2023/06/24 01:05:53;;;;;;;23.23;15.05;;;;;;;-143.21;82.43;71403.97;5074054;28;20197;-87
2023/06/24 01:08:22;;;;;;;25.55;15.88;;;;;;;-143.21;82.92;71411.91;5074450;28;20205;-86
2023/06/24 01:10:49;;;;;;;27.45;16.88;;;;;;;-143.21;83.38;71409.91;5075380;28;20201;-85
2023/06/24 01:13:16;;;;;;;19.08;15.20;;;;;;;-143.21;83.85;71417.84;5076416;28;20571;-84
2023/06/24 01:15:46;;;;;;;26.20;16.58;;;;;;;-143.21;83.94;71411.91;5080917;28;20202;-86
2023/06/24 01:18:22;;;;;;;23.27;15.68;;;;;;;-143.21;83.27;71411.91;5076352;28;20204;-85
2023/06/24 01:20:53;;;;;;;22.48;16.35;;;;;;;-143.21;83.45;71411.91;5076531;28;20229;-84
2023/06/24 01:23:53;;;;;;;24.35;16.08;;;;;;;-143.21;83.56;71409.91;5073977;28;20203;-85
2023/06/24 01:26:30;;;;;;;26.25;16.40;;;;;;;-143.21;83.59;71409.91;5073857;28;20216;-85
2023/06/24 01:29:30;;;;;;;24.08;15.60;;;;;;;-143.21;83.82;71407.94;5088132;28;20194;-85
2023/06/24 01:32:03;;;;;;;26.35;16.15;;;;;;;-143.21;83.52;71419.84;5086583;28;20189;-85
2023/06/24 01:34:35;;;;;;;22.88;16.67;;;;;;;-143.21;83.15;71413.88;5085076;28;20224;-86
2023/06/24 01:37:09;;;;;;;23.35;15.93;;;;;;;-143.21;82.90;71413.88;5074660;28;20267;-85
2023/06/24 01:39:43;;;;;;;23.95;16.27;;;;;;;-143.21;82.81;71425.78;5075009;28;20212;-85
2023/06/24 01:42:15;;;;;;;23.73;16.67;;;;;;;-143.21;82.61;71421.81;5074067;28;20276;-85
2023/06/24 01:44:44;;;;;;;22.38;16.85;;;;;;;-143.21;82.68;71427.75;5073302;28;20624;-87
2023/06/24 01:47:15;;;;;;;22.88;16.40;;;;;;;-143.21;82.90;71435.69;5072975;28;20189;-90
2023/06/24 01:49:45;;;;;;;28.73;16.63;;;;;;;-143.21;82.74;71433.72;5072211;28;20250;-84
2023/06/24 01:52:14;;;;;;;26.40;16.27;;;;;;;-143.21;82.36;71427.75;5072476;28;20206;-84
2023/06/24 01:54:42;;;;;;;23.13;16.30;;;;;;;-143.21;80.93;71415.88;5072580;28;20281;-84
2023/06/24 01:57:11;;;;;;;25.90;16.00;;;;;;;-143.21;80.62;71419.84;5071509;28;20645;-84
2023/06/24 01:59:41;;;;;;;24.35;16.63;;;;;;;-143.21;80.57;71423.78;5071708;28;20202;-84
2023/06/24 02:02:09;;;;;;;21.42;15.43;;;;;;;-143.21;81.02;71429.75;5071003;28;20205;-84
2023/06/24 02:04:39;;;;;;;24.77;15.90;;;;;;;-143.21;81.92;71441.63;5071238;28;20600;-84
2023/06/24 02:07:07;;;;;;;24.20;16.05;;;;;;;-143.21;82.49;71459.47;5071661;28;21250;-84
2023/06/24 02:09:35;;;;;;;23.35;15.93;;;;;;;-143.21;81.94;71459.47;5070816;28;20204;-84
2023/06/24 02:12:04;;;;;;;21.67;15.60;;;;;;;-143.21;81.46;71461.47;5070760;28;20197;-84
2023/06/24 02:14:52;;;;;;;28.65;16.58;;;;;;;-143.21;82.10;71471.38;5071299;28;20216;-84
2023/06/24 02:17:21;;;;;;;26.73;16.73;;;;;;;-143.21;82.78;71477.34;5071070;28;20189;-84
2023/06/24 02:19:50;;;;;;;22.85;16.70;;;;;;;-143.21;82.75;71487.25;5071895;28;20232;-83
2023/06/24 02:22:22;;;;;;;21.77;16.08;;;;;;;-143.21;82.33;71491.22;5090902;28;20199;-88
2023/06/24 02:24:51;;;;;;;22.90;16.48;;;;;;;-143.21;82.56;71487.25;5088722;28;20205;-88
2023/06/24 02:27:19;;;;;;;25.05;16.90;;;;;;;-143.21;82.47;71493.19;5092022;28;20208;-87
2023/06/24 02:29:47;;;;;;;26.52;17.10;;;;;;;-143.21;83.17;71493.19;5089059;28;20223;-87
2023/06/24 02:32:14;;;;;;;20.50;15.40;;;;;;;-143.21;82.19;71497.16;5087925;28;20200;-88
2023/06/24 02:34:41;;;;;;;26.35;16.17;;;;;;;-143.21;81.56;71485.25;5091653;28;20219;-87
2023/06/24 02:37:10;;;;;;;24.92;16.35;;;;;;;-143.21;81.46;71489.22;5092071;28;20204;-86
2023/06/24 02:39:39;;;;;;;23.75;16.60;;;;;;;-143.21;81.94;71495.19;5091025;28;20201;-86
2023/06/24 02:42:06;;;;;;;21.48;15.70;;;;;;;-143.21;81.52;71499.13;5090457;28;20252;-88
2023/06/24 02:44:33;;;;;;;22.83;16.08;;;;;;;-143.21;81.67;71499.13;5089425;28;20196;-88
2023/06/24 02:47:01;;;;;;;21.02;16.13;;;;;;;-143.21;81.86;71499.13;5093616;28;20200;-89
2023/06/24 02:49:28;;;;;;;20.48;16.63;;;;;;;-143.21;81.92;71493.19;5096827;28;20199;-85
2023/06/24 02:51:55;;;;;;;20.98;15.27;;;;;;;-143.21;82.37;71497.16;5108179;28;20200;-86
2023/06/24 02:54:24;;;;;;;23.63;16.48;;;;;;;-143.21;82.08;71503.09;5105724;28;20269;-85
2023/06/24 02:56:51;;;;;;;22.80;15.88;;;;;;;-143.21;82.16;71503.09;5103088;28;20220;-85
2023/06/24 02:59:22;;;;;;;25.52;16.85;;;;;;;-143.21;81.87;71503.09;5092325;28;20521;-85
2023/06/24 03:01:49;;;;;;;22.17;16.27;;;;;;;-143.21;82.02;71503.09;5090244;28;20254;-87
2023/06/24 03:04:16;;;;;;;25.17;16.33;;;;;;;-143.21;81.97;71501.13;5092830;28;20621;-87
2023/06/24 03:06:43;;;;;;;27.55;17.00;;;;;;;-143.21;82.50;71503.09;5091451;28;20590;-86
2023/06/24 03:09:10;;;;;;;23.13;16.83;;;;;;;-143.21;82.49;71499.13;5089883;28;20588;-85
2023/06/24 03:11:45;;;;;;;24.15;16.77;;;;;;;-143.21;82.36;71493.19;5092356;28;20209;-87
2023/06/24 03:14:12;;;;;;;25.80;16.08;;;;;;;-143.21;82.65;71495.19;5089806;28;20216;-86
2023/06/24 03:16:39;;;;;;;19.98;15.95;;;;;;;-143.21;82.83;71499.13;5089412;28;20292;-87
2023/06/24 03:19:06;;;;;;;25.48;16.27;;;;;;;-143.21;82.69;71503.09;5089090;28;20189;-88
2023/06/24 03:21:33;;;;;;;24.15;16.30;;;;;;;-143.21;82.43;71501.13;5071068;28;20236;-86
2023/06/24 03:24:00;;;;;;;25.48;16.73;;;;;;;-143.21;82.66;71509.06;5070394;28;20233;-86
2023/06/24 03:26:33;;;;;;;25.08;16.98;;;;;;;-143.21;82.87;71513.03;5070805;28;20288;-86
2023/06/24 03:29:01;;;;;;;23.85;16.48;;;;;;;-143.21;82.66;71511.03;5070929;28;20239;-86
2023/06/24 03:31:28;;;;;;;22.80;16.77;;;;;;;-143.21;82.76;71516.97;5071869;28;20205;-87
2023/06/24 03:33:55;;;;;;;22.77;16.42;;;;;;;-143.21;82.18;71518.97;5070300;28;20644;-86
2023/06/24 03:36:22;;;;;;;28.63;16.95;;;;;;;-143.21;81.73;71511.03;5069617;28;20197;-86
2023/06/24 03:38:48;;;;;;;28.00;17.70;;;;;;;-143.21;81.84;71511.03;5069813;28;20197;-84
2023/06/24 03:41:15;;;;;;;30.65;16.90;;;;;;;-143.21;82.40;71516.97;5070146;28;20208;-84
2023/06/24 03:43:43;;;;;;;29.00;16.83;;;;;;;-143.21;82.38;71516.97;5070082;28;20202;-83
2023/06/24 03:46:11;;;;;;;27.40;16.88;;;;;;;-143.21;82.81;71524.91;5069685;28;20208;-82
2023/06/24 03:48:38;;;;;;;25.23;16.70;;;;;;;-143.21;82.75;71522.94;5068905;28;20209;-83
2023/06/24 03:51:05;;;;;;;31.30;17.08;;;;;;;-143.21;82.89;71526.91;5069413;28;20197;-83
2023/06/24 03:53:32;;;;;;;27.27;18.35;;;;;;;-143.21;82.11;71526.91;5069042;28;20251;-84
2023/06/24 03:55:59;;;;;;;24.70;17.17;;;;;;;-143.21;81.75;71524.91;5069131;28;20263;-83
2023/06/24 03:58:26;;;;;;;26.75;17.02;;;;;;;-143.21;81.59;71524.91;5071336;28;20276;-83
2023/06/24 04:00:56;;;;;;;25.55;17.05;;;;;;;-143.21;81.89;71526.91;5069219;28;20284;-83
2023/06/24 04:03:26;;;;;;;25.13;17.23;;;;;;;-143.21;82.35;71532.84;5069325;28;20225;-89
2023/06/24 04:05:54;;;;;;;24.67;17.58;;;;;;;-143.21;82.44;71534.81;5071255;28;20201;-89
2023/06/24 04:08:22;;;;;;;23.17;17.35;;;;;;;-143.21;81.80;71528.88;5069363;28;20237;-87
2023/06/24 04:10:48;;;;;;;25.92;17.15;;;;;;;-143.21;82.02;71516.97;5074450;28;20198;-84
2023/06/24 04:13:15;;;;;;;21.90;17.23;;;;;;;-143.21;82.42;71511.03;5080697;28;20205;-84
2023/06/24 04:15:42;;;;;;;26.00;18.27;;;;;;;-143.21;82.13;71503.09;5087128;28;20216;-85
2023/06/24 04:18:09;;;;;;;27.85;17.42;;;;;;;-143.21;81.50;71487.25;5081262;28;20197;-85
2023/06/24 04:20:37;;;;;;;24.63;18.88;;;;;;;-143.21;80.64;71491.22;5089459;28;20238;-86
2023/06/24 04:23:09;;;;;;;25.15;17.20;;;;;;;-143.21;80.40;71491.22;5096618;28;20199;-86
2023/06/24 04:25:35;;;;;;;28.00;17.60;;;;;;;-143.21;80.27;71491.22;5089530;28;20204;-85
2023/06/24 04:28:02;;;;;;;26.92;17.38;;;;;;;-143.21;79.75;71487.25;5090284;28;20215;-84
2023/06/24 04:30:29;;;;;;;24.45;17.33;;;;;;;-143.21;79.78;71485.25;5088048;28;20660;-84
2023/06/24 04:32:56;;;;;;;23.60;17.75;;;;;;;-143.21;79.68;71481.28;5095377;28;20224;-84
2023/06/24 04:35:23;;;;;;;22.85;17.30;;;;;;;-143.21;79.95;71481.28;5091278;28;20197;-84
2023/06/24 04:37:51;;;;;;;22.42;16.40;;;;;;;-143.21;80.41;71477.34;5093702;28;20204;-85
2023/06/24 04:40:19;;;;;;;24.23;17.17;;;;;;;-143.21;80.95;71471.38;5093010;28;20208;-85
2023/06/24 04:42:46;;;;;;;23.20;17.25;;;;;;;-143.21;80.84;71461.47;5093070;28;20201;-85
2023/06/24 04:45:13;;;;;;;24.42;16.70;;;;;;;-143.21;80.68;71453.53;5090536;28;20663;-85
2023/06/24 04:47:40;;;;;;;27.40;19.38;;;;;;;-143.21;80.56;71449.56;5092962;28;20208;-85
2023/06/24 04:50:09;;;;;;;26.45;19.33;;;;;;;-143.21;79.55;71447.59;5092796;28;20192;-84
2023/06/24 04:52:36;;;;;;;27.50;18.08;;;;;;;-143.21;79.68;71449.56;5092974;28;20209;-85
2023/06/24 04:55:05;;;;;;;26.42;19.10;;;;;;;-143.21;79.97;71441.63;5092875;28;20212;-84
2023/06/24 04:57:34;;;;;;;28.33;17.83;;;;;;;-143.21;79.92;71435.69;5090780;28;20690;-85
2023/06/24 05:00:01;;;;;;;29.33;18.02;;;;;;;-143.21;79.72;71427.75;5091931;28;20197;-84
2023/06/24 05:02:28;;;;;;;29.75;19.45;;;;;;;-143.21;79.41;71423.78;5091553;28;20197;-84
2023/06/24 05:04:55;;;;;;;23.02;18.35;;;;;;;-143.21;78.87;71429.75;5090995;28;20188;-84
2023/06/24 05:07:22;;;;;;;28.35;18.50;;;;;;;-143.21;78.92;71417.84;5092131;28;20204;-84
2023/06/24 05:09:51;;;;;;;24.42;18.05;;;;;;;-143.21;79.01;71411.91;5091804;28;20580;-84
2023/06/24 05:12:19;;;;;;;27.77;19.27;;;;;;;-143.21;78.92;71409.91;5090847;28;20192;-84
2023/06/24 05:14:51;;;;;;;30.33;19.40;;;;;;;-143.21;79.23;71398.03;5093031;28;20220;-84
2023/06/24 05:17:19;;;;;;;27.55;19.10;;;;;;;-143.21;78.50;71394.06;5088243;28;20232;-84
2023/06/24 05:19:46;;;;;;;23.02;18.48;;;;;;;-143.21;78.63;71394.06;5087401;28;20229;-84
2023/06/24 05:22:16;;;;;;;26.30;18.63;;;;;;;-143.21;78.51;71386.13;5078955;28;20661;-84
2023/06/24 05:24:43;;;;;;;29.35;18.52;;;;;;;-143.21;78.27;71374.22;5073761;28;20661;-84
2023/06/24 05:27:10;;;;;;;26.52;19.30;;;;;;;-143.21;77.84;71368.28;5071886;28;20215;-84
2023/06/24 05:29:39;;;;;;;24.50;18.00;;;;;;;-143.21;77.75;71370.28;5074695;28;20277;-85
2023/06/24 05:32:07;;;;;;;23.33;16.67;;;;;;;-143.21;75.14;71360.34;5073309;28;20672;-78
2023/06/24 05:34:34;;;;;;;21.50;17.17;;;;;;;-143.21;75.05;71362.34;5073783;28;20221;-80
2023/06/24 05:37:01;;;;;;;27.08;17.25;;;;;;;-143.21;74.62;71364.31;5075078;28;20609;-79
2023/06/24 05:39:28;;;;;;;23.35;16.42;;;;;;;-143.21;74.98;71356.38;5071180;28;20198;-77
2023/06/24 05:41:55;;;;;;;22.48;18.52;;;;;;;-143.21;75.00;71352.44;5075741;28;20197;-79
2023/06/24 05:44:22;;;;;;;27.95;19.85;;;;;;;-143.21;75.12;71342.50;5070821;28;20190;-79
2023/06/24 05:46:51;;;;;;;28.25;19.48;;;;;;;-143.21;75.47;71334.59;5072843;28;20193;-79
2023/06/24 05:49:18;;;;;;;28.90;20.20;;;;;;;-143.21;75.35;71326.66;5074244;28;20197;-79
2023/06/24 05:51:44;;;;;;;26.45;19.38;;;;;;;-143.21;75.60;71316.75;5077925;28;20197;-79
2023/06/24 05:54:14;;;;;;;29.58;18.95;;;;;;;-143.21;75.93;71308.81;5073425;28;20224;-80
2023/06/24 05:56:43;;;;;;;31.88;20.15;;;;;;;-143.21;75.67;71306.81;5073010;28;20201;-84
2023/06/24 05:59:10;;;;;;;30.63;20.75;;;;;;;-143.21;74.88;71306.81;5086231;28;20276;-82
2023/06/24 06:01:37;;;;;;;27.10;19.08;;;;;;;-143.21;74.76;71306.81;5089439;28;20217;-81
2023/06/24 06:04:05;;;;;;;26.15;20.73;;;;;;;-143.21;74.68;71296.91;5079860;28;20204;-82
2023/06/24 06:06:32;;;;;;;28.92;19.42;;;;;;;-143.21;74.84;71292.94;5080381;28;20205;-84
2023/06/24 06:09:01;;;;;;;25.42;18.25;;;;;;;-143.21;74.38;71292.94;5078734;28;20200;-85
2023/06/24 06:11:27;;;;;;;29.45;18.63;;;;;;;-143.21;74.41;71283.03;5074981;28;20236;-85
2023/06/24 06:13:54;;;;;;;25.98;18.88;;;;;;;-143.21;74.11;71275.09;5075240;28;20217;-84
2023/06/24 06:16:21;;;;;;;27.88;19.60;;;;;;;-143.21;73.89;71275.09;5072236;28;20667;-88
2023/06/24 06:18:48;;;;;;;30.55;17.83;;;;;;;-143.21;73.20;71269.16;5072724;28;20200;-89
2023/06/24 06:21:16;;;;;;;25.20;17.73;;;;;;;-143.21;73.17;71257.25;5080957;28;20232;-88
2023/06/24 06:23:43;;;;;;;23.90;18.10;;;;;;;-143.21;72.93;71247.34;5078315;28;20193;-89
2023/06/24 06:26:10;;;;;;;21.65;17.88;;;;;;;-143.21;72.75;71243.38;5074224;28;20568;-86
2023/06/24 06:28:37;;;;;;;28.02;18.52;;;;;;;-143.21;72.82;71241.41;5073018;28;20617;-87
2023/06/24 06:31:03;;;;;;;26.75;17.63;;;;;;;-143.21;71.99;71231.50;5074616;28;20204;-87
2023/06/24 06:33:30;;;;;;;26.63;18.08;;;;;;;-143.21;71.84;71225.53;5070277;28;20201;-87
2023/06/24 06:35:58;;;;;;;25.80;17.67;;;;;;;-143.21;71.81;71221.56;5073092;28;20216;-89
2023/06/24 06:38:28;;;;;;;22.38;16.58;;;;;;;-143.21;71.97;71215.63;5068820;28;20194;-80
2023/06/24 06:40:58;;;;;;;26.80;18.27;;;;;;;-143.21;71.97;71209.69;5070023;28;20660;-81
2023/06/24 06:43:25;;;;;;;23.10;17.27;;;;;;;-143.21;71.75;71201.75;5070683;28;20244;-81
2023/06/24 06:45:52;;;;;;;23.88;15.60;;;;;;;-143.21;69.63;71191.84;5072438;28;20193;-81
2023/06/24 06:48:19;;;;;;;24.45;16.35;;;;;;;-143.21;69.35;71193.81;5061888;28;20206;-82
2023/06/24 06:50:46;;;;;;;23.20;16.77;;;;;;;-143.21;70.03;71187.88;5077345;28;20664;-82
2023/06/24 06:53:13;;;;;;;24.65;16.50;;;;;;;-143.21;70.08;71183.91;5066341;28;20198;-82
2023/06/24 06:55:42;;;;;;;30.50;16.92;;;;;;;-143.21;69.28;71181.94;5069340;28;20251;-82
2023/06/24 06:58:09;;;;;;;23.05;15.90;;;;;;;-143.21;69.11;71172.00;5078291;28;20403;-84
2023/06/24 07:00:36;;;;;;;22.33;16.33;;;;;;;-143.21;69.05;71166.06;5071696;28;20201;-85
2023/06/24 07:03:03;;;;;;;19.60;15.13;;;;;;;-143.21;68.83;71162.09;5070922;28;20220;-84
2023/06/24 07:05:30;;;;;;;18.23;15.43;;;;;;;-143.21;67.59;71140.28;5070122;28;20201;-84
2023/06/24 07:07:56;;;;;;;21.23;15.70;;;;;;;-143.21;67.15;71116.50;5070689;28;20197;-84
2023/06/24 07:10:23;;;;;;;19.50;14.80;;;;;;;-143.21;65.99;71092.72;5069897;28;20250;-84
2023/06/24 07:12:57;;;;;;;20.70;15.57;;;;;;;-143.21;63.81;71074.88;5070112;28;20556;-84
2023/06/24 07:15:25;;;;;;;23.23;16.20;;;;;;;-143.21;63.50;71064.97;5068171;28;20773;-83
2023/06/24 07:17:52;;;;;;;20.98;14.00;;;;;;;-143.21;62.61;71051.09;5071484;28;20273;-83
2023/06/24 07:20:19;;;;;;;21.10;14.55;;;;;;;-143.21;62.78;71041.16;5075366;28;20225;-86
2023/06/24 07:22:46;;;;;;;22.13;15.18;;;;;;;-143.21;63.02;71031.25;5071000;28;20202;-83
2023/06/24 07:25:13;;;;;;;20.65;13.85;;;;;;;-143.21;62.42;71031.25;5070752;28;20204;-83
2023/06/24 07:27:40;;;;;;;16.42;13.43;;;;;;;-143.21;62.74;71031.25;5077901;28;20605;-83
2023/06/24 07:30:09;;;;;;;24.20;13.60;;;;;;;-143.21;62.69;71025.31;5076992;28;20208;-80
2023/06/24 07:32:36;;;;;;;19.63;12.55;;;;;;;-143.21;62.85;71027.28;5073258;28;20747;-81
2023/06/24 07:35:03;;;;;;;19.23;13.57;;;;;;;-143.21;62.33;71029.28;5069307;28;20217;-81
2023/06/24 07:37:30;;;;;;;26.98;14.15;;;;;;;-143.21;62.20;71031.25;5073366;28;20309;-80
2023/06/24 07:39:57;;;;;;;20.55;15.23;;;;;;;-143.21;61.83;71031.25;5076699;28;20547;-81
2023/06/24 07:42:24;;;;;;;16.13;13.57;;;;;;;-143.21;62.17;71023.34;5077244;28;20298;-80
2023/06/24 07:44:51;;;;;;;19.67;13.52;;;;;;;-143.21;62.56;71021.34;5078694;28;20205;-79
2023/06/24 07:47:19;;;;;;;20.33;14.80;;;;;;;-143.21;62.71;71009.44;5070550;28;20206;-81
2023/06/24 07:49:46;;;;;;;18.88;14.57;;;;;;;-143.21;62.37;71007.47;5067623;28;20237;-80
2023/06/24 07:52:13;;;;;;;19.52;13.07;;;;;;;-143.21;61.97;70991.63;5073177;28;20228;-81
2023/06/24 07:54:40;;;;;;;19.90;13.82;;;;;;;-143.21;62.21;70993.59;5074526;28;21520;-81
2023/06/24 07:57:07;;;;;;;18.02;11.45;;;;;;;-143.21;62.54;70997.56;5072235;28;20202;-81
2023/06/24 07:59:34;;;;;;;15.45;13.75;;;;;;;-143.21;62.21;70993.59;5071400;28;20193;-81
2023/06/24 08:02:01;;;;;;;14.82;12.00;;;;;;;-143.21;61.98;70989.63;5076439;28;20621;-81
2023/06/24 08:04:29;;;;;;;18.17;13.35;;;;;;;-143.21;61.82;70987.66;5070881;28;20194;-81
2023/06/24 08:06:55;;;;;;;19.38;14.40;;;;;;;-143.21;61.37;70979.72;5075529;28;20289;-81
2023/06/24 08:09:22;;;;;;;18.30;13.93;;;;;;;-143.21;61.32;70973.78;5081674;28;20203;-81
2023/06/24 08:11:49;;;;;;;19.67;14.82;;;;;;;-143.21;60.65;70967.81;5066602;28;20220;-81
2023/06/24 08:14:16;;;;;;;20.60;15.15;;;;;;;-143.21;60.94;70951.97;5072445;28;20213;-82
2023/06/24 08:16:43;;;;;;;18.80;14.80;;;;;;;-143.21;61.59;70949.97;5070101;28;20197;-83
2023/06/24 08:19:09;;;;;;;20.10;14.73;;;;;;;-143.21;60.54;70932.13;5069083;28;20213;-82
2023/06/24 08:21:38;;;;;;;20.55;14.85;;;;;;;-143.21;60.54;70924.22;5069357;28;20241;-82
2023/06/24 08:24:05;;;;;;;20.00;15.68;;;;;;;-143.21;59.78;70920.25;5070395;28;20305;-83
2023/06/24 08:26:32;;;;;;;21.63;15.52;;;;;;;-143.21;59.35;70912.31;5069592;28;20672;-82
2023/06/24 08:28:59;;;;;;;22.85;16.17;;;;;;;-143.21;59.82;70914.31;5070108;28;20197;-83
2023/06/24 08:31:26;;;;;;;19.42;14.40;;;;;;;-143.21;60.62;70910.34;5069850;28;20702;-83
2023/06/24 08:33:54;;;;;;;18.48;15.57;;;;;;;-143.21;61.25;70902.41;5069482;28;20205;-82
2023/06/24 08:36:23;;;;;;;19.15;14.85;;;;;;;-143.21;61.75;70890.50;5070081;28;20228;-82
2023/06/24 08:38:51;;;;;;;15.20;12.85;;;;;;;-143.21;61.46;70880.59;5069857;28;20205;-83
2023/06/24 08:41:18;;;;;;;16.27;13.10;;;;;;;-143.21;60.18;70868.72;5069519;28;20194;-83
2023/06/24 08:43:45;;;;;;;19.63;13.90;;;;;;;-143.21;59.92;70862.75;5070203;28;20197;-82
2023/06/24 08:46:14;;;;;;;19.70;13.98;;;;;;;-143.21;59.78;70846.91;5070523;28;20209;-83
2023/06/24 08:48:43;;;;;;;18.67;14.85;;;;;;;-143.21;58.57;70840.97;5069870;28;20202;-82
2023/06/24 08:51:14;;;;;;;20.83;14.68;;;;;;;-143.21;59.29;70835.00;5070465;28;20206;-83
2023/06/24 08:53:44;;;;;;;18.77;13.98;;;;;;;-143.21;58.58;70835.00;5071317;28;20216;-86
2023/06/24 08:56:14;;;;;;;17.00;13.32;;;;;;;-143.21;58.91;70825.09;5069251;28;20279;-84
2023/06/24 08:58:41;;;;;;;14.02;10.00;;;;;;;-143.21;59.49;70821.13;5071938;28;20889;-84
2023/06/24 09:01:09;;;;;;;17.98;13.05;;;;;;;-143.21;58.88;70811.22;5088920;28;20186;-83
2023/06/24 09:03:36;;;;;;;15.00;11.77;;;;;;;-143.21;59.01;70803.28;5092251;28;20198;-84
2023/06/24 09:06:03;;;;;;;17.05;11.98;;;;;;;-143.21;58.97;70797.34;5092874;28;20201;-84
2023/06/24 09:08:30;;;;;;;15.75;12.95;;;;;;;-143.21;58.85;70787.44;5072898;28;20204;-84
2023/06/24 09:10:57;;;;;;;11.48;10.27;;;;;;;-143.21;59.02;70779.50;5073582;28;20202;-84
2023/06/24 09:13:35;;;;;;;13.63;12.23;;;;;;;-143.21;58.56;70775.53;5071517;28;20202;-82
2023/06/24 09:16:12;;;;;;;15.30;13.57;;;;;;;-143.21;58.44;70759.69;5071256;28;20217;-83
2023/06/24 09:18:39;;;;;;;17.20;14.18;;;;;;;-143.21;57.55;70753.72;5070412;28;20193;-83
2023/06/24 09:21:06;;;;;;;17.98;13.23;;;;;;;-143.21;58.89;70741.84;5074069;28;20244;-83
2023/06/24 09:23:37;;;;;;;17.50;14.25;;;;;;;-143.21;56.29;70731.94;5073436;28;20676;-82
2023/06/24 09:26:04;;;;;;;17.73;12.57;;;;;;;-143.21;57.17;70724.00;5072799;28;20228;-83
2023/06/24 09:28:32;;;;;;;14.48;11.10;;;;;;;-143.21;57.59;70714.09;5072241;28;20197;-84
2023/06/24 09:31:06;;;;;;;18.13;13.60;;;;;;;-143.21;57.04;70710.13;5072486;28;20236;-83
2023/06/24 09:33:34;;;;;;;16.15;13.27;;;;;;;-143.21;57.37;70698.22;5072794;28;20201;-83
2023/06/24 09:36:03;;;;;;;14.73;11.68;;;;;;;-143.21;57.53;70684.34;5073347;28;20205;-83
2023/06/24 09:38:34;;;;;;;15.60;13.80;;;;;;;-143.21;56.82;70680.38;5071893;28;20204;-84
2023/06/24 09:41:04;;;;;;;16.23;12.93;;;;;;;-143.21;56.99;70662.56;5071386;28;20240;-83
2023/06/24 09:43:35;;;;;;;16.25;13.27;;;;;;;-143.21;55.17;70648.69;5071445;28;20213;-84
2023/06/24 09:46:04;;;;;;;24.25;12.88;;;;;;;-143.21;53.56;70632.81;5075884;28;20214;-84
2023/06/24 09:48:31;;;;;;;16.50;13.15;;;;;;;-143.21;53.91;70630.84;5071931;28;20298;-84
2023/06/24 09:51:01;;;;;;;16.40;12.68;;;;;;;-143.21;53.13;70622.91;5071934;28;20206;-84
2023/06/24 09:53:31;;;;;;;15.90;12.57;;;;;;;-143.21;53.07;70613.00;5072152;28;20328;-84
2023/06/24 09:56:00;;;;;;;13.70;12.07;;;;;;;-143.21;53.64;70605.06;5075460;28;20220;-84
2023/06/24 09:58:29;;;;;;;16.85;12.05;;;;;;;-143.21;52.85;70581.28;5072164;28;20659;-84
2023/06/24 10:00:58;;;;;;;15.98;12.68;;;;;;;-143.21;52.34;70569.38;5072424;28;20201;-84
2023/06/24 10:03:25;;;;;;;15.57;11.10;;;;;;;-143.21;52.16;70557.50;5072512;28;20208;-84
2023/06/24 10:05:52;;;;;;;17.58;12.38;;;;;;;-143.21;51.65;70541.63;5073909;28;20197;-84
2023/06/24 10:08:20;;;;;;;19.05;13.30;;;;;;;-143.21;52.50;70529.75;5071169;28;20185;-84
2023/06/24 10:10:47;;;;;;;14.77;11.82;;;;;;;-143.21;52.78;70513.88;5068963;28;20205;-84
2023/06/24 10:13:14;;;;;;;19.77;12.70;;;;;;;-143.21;51.60;70486.16;5072140;28;20212;-84
2023/06/24 10:15:41;;;;;;;17.48;11.98;;;;;;;-143.21;50.47;70468.31;5071697;28;20224;-84
2023/06/24 10:18:37;;;;;;;16.45;11.77;;;;;;;-143.21;50.32;70454.44;5071406;28;20728;-84
2023/06/24 10:21:05;;;;;;;12.32;10.82;;;;;;;-143.21;50.94;70422.72;5084662;28;20217;-84
2023/06/24 10:23:34;;;;;;;15.27;10.95;;;;;;;-143.21;50.47;70406.84;5093049;28;20201;-85
2023/06/24 10:26:01;;;;;;;16.80;11.95;;;;;;;-143.21;49.59;70392.97;5097134;28;20816;-84
2023/06/24 10:28:28;;;;;;;13.18;11.23;;;;;;;-143.21;48.79;70375.16;5103686;28;20250;-85
2023/06/24 10:30:57;;;;;;;12.63;11.32;;;;;;;-143.21;48.88;70347.41;5092517;28;20585;-85
2023/06/24 10:33:25;;;;;;;17.08;11.80;;;;;;;-143.21;49.03;70315.69;5092190;28;20229;-84
2023/06/24 10:35:53;;;;;;;13.85;10.40;;;;;;;-143.21;47.29;70297.84;5095756;28;20305;-86
2023/06/24 10:38:20;;;;;;;15.50;11.63;;;;;;;-143.21;47.47;70270.09;5098115;28;20690;-86
2023/06/24 10:40:50;;;;;;;14.50;10.77;;;;;;;-143.21;46.77;70246.31;5093552;28;20569;-86
2023/06/24 10:43:29;;;;;;;15.90;10.82;;;;;;;-143.21;46.21;70220.56;5089759;28;20205;-86
2023/06/24 10:45:57;;;;;;;14.90;11.70;;;;;;;-143.21;47.08;70194.78;5090909;28;20223;-86
2023/06/24 10:48:24;;;;;;;11.50;10.30;;;;;;;-143.21;45.98;70174.97;5092331;28;20287;-85
2023/06/24 10:50:51;;;;;;;11.40;10.07;;;;;;;-143.21;45.36;70153.16;5092315;28;20660;-85
2023/06/24 10:53:19;;;;;;;14.40;9.88;;;;;;;-143.21;44.40;70145.25;5092359;28;20203;-86
2023/06/24 10:55:47;;;;;;;13.82;9.88;;;;;;;-143.21;43.80;70143.25;5088734;28;20216;-85
2023/06/24 10:58:15;;;;;;;13.60;9.80;;;;;;;-143.21;43.37;70153.16;5093201;28;20238;-85
2023/06/24 11:00:44;;;;;;;13.85;9.52;;;;;;;-143.21;43.12;70149.19;5112270;28;20200;-85
2023/06/24 11:03:12;;;;;;;12.35;9.90;;;;;;;-143.21;43.30;70127.41;5112450;28;20678;-85
2023/06/24 11:05:41;;;;;;;11.20;9.50;;;;;;;-143.21;42.39;70107.59;5112437;28;20196;-85
2023/06/24 11:08:08;;;;;;;11.85;9.07;;;;;;;-143.21;42.76;70085.78;5112367;28;20256;-85